Time;durP1;ratioP1;P1;durP2;ratioP2;P2;SDS_P1;SDS_P2;PMS_P1;PMS_P2;Temp;Humidity;BMP_temperature;BMP_pressure;BME280_temperature;BME280_humidity;BME280_pressure;Samples;Min_cycle;Max_cycle;Signal;HPM_P1;HPM_P2
2022/12/11 00:00:20;;;;;;;14.73;9.20;;;3.60;99.90;;;;;;7398811;19;20164;-80
2022/12/11 00:02:46;;;;;;;15.77;10.00;;;2.90;99.90;;;;;;7397300;19;20134;-81
2022/12/11 00:05:12;;;;;;;13.63;8.50;;;3.00;99.90;;;;;;7400214;19;20154;-81
2022/12/11 00:07:37;;;;;;;13.70;8.43;;;2.90;99.90;;;;;;7397014;19;20134;-80
2022/12/11 00:10:04;;;;;;;14.50;8.90;;;3.00;99.90;;;;;;7398032;19;20134;-80
2022/12/11 00:12:30;;;;;;;14.90;9.27;;;3.20;99.90;;;;;;7396426;19;20160;-80
2022/12/11 00:14:56;;;;;;;12.50;8.43;;;3.30;99.90;;;;;;7396564;19;20146;-80
2022/12/11 00:17:22;;;;;;;14.00;8.87;;;3.30;99.90;;;;;;7395488;19;20149;-82
2022/12/11 00:19:48;;;;;;;15.90;10.50;;;3.30;99.90;;;;;;7397015;19;20147;-80
2022/12/11 00:22:14;;;;;;;15.50;9.63;;;3.40;99.90;;;;;;7395510;19;20590;-80
2022/12/11 00:24:40;;;;;;;15.37;9.83;;;3.40;99.90;;;;;;7397317;19;20146;-79
2022/12/11 00:27:06;;;;;;;16.97;10.27;;;3.50;99.90;;;;;;7394683;19;20143;-80
2022/12/11 00:29:32;;;;;;;15.07;9.23;;;3.50;99.90;;;;;;7396969;19;20123;-80
2022/12/11 00:31:58;;;;;;;16.47;10.00;;;3.40;99.90;;;;;;7394673;19;20145;-81
2022/12/11 00:34:24;;;;;;;15.63;9.63;;;3.30;99.90;;;;;;7396713;19;20150;-80
2022/12/11 00:36:49;;;;;;;14.10;8.83;;;3.40;99.90;;;;;;7396109;19;20139;-80
2022/12/11 00:39:15;;;;;;;15.77;9.43;;;3.50;99.90;;;;;;7396107;19;20131;-81
2022/12/11 00:41:41;;;;;;;17.00;9.53;;;3.60;99.90;;;;;;7397016;19;20127;-80
2022/12/11 00:44:07;;;;;;;14.67;9.57;;;3.60;99.90;;;;;;7396259;19;20142;-82
2022/12/11 00:46:36;;;;;;;17.93;10.03;;;3.50;99.90;;;;;;7396920;19;20147;-81
2022/12/11 00:49:02;;;;;;;17.30;10.40;;;3.50;99.90;;;;;;7394079;19;20777;-81
2022/12/11 00:51:28;;;;;;;15.90;9.83;;;3.40;99.90;;;;;;7394361;19;20139;-80
2022/12/11 00:53:54;;;;;;;17.23;9.97;;;3.50;99.90;;;;;;7394844;19;20918;-82
2022/12/11 00:56:22;;;;;;;16.67;10.10;;;3.50;99.90;;;;;;7390694;19;20182;-81
2022/12/11 00:58:48;;;;;;;15.20;10.17;;;3.60;99.90;;;;;;7393555;19;20154;-80
2022/12/11 01:01:18;;;;;;;15.67;10.00;;;3.60;99.90;;;;;;7394072;19;20158;-79
2022/12/11 01:03:45;;;;;;;15.80;9.43;;;3.60;99.90;;;;;;7393138;19;20158;-81
2022/12/11 01:06:17;;;;;;;16.83;9.70;;;3.20;99.90;;;;;;7392364;19;20240;-80
2022/12/11 01:08:44;;;;;;;14.53;9.07;;;2.60;99.90;;;;;;7391039;19;20161;-80
2022/12/11 01:11:12;;;;;;;14.90;9.77;;;3.00;99.90;;;;;;7393208;19;20232;-80
2022/12/11 01:13:39;;;;;;;14.93;9.00;;;3.20;99.90;;;;;;7391420;19;20134;-81
2022/12/11 01:16:12;;;;;;;16.63;9.87;;;3.40;99.90;;;;;;7391767;19;20175;-81
2022/12/11 01:18:38;;;;;;;16.67;10.27;;;3.50;99.90;;;;;;7392682;19;20158;-81
2022/12/11 01:21:12;;;;;;;14.93;9.93;;;3.50;99.90;;;;;;7392700;19;20182;-81
2022/12/11 01:23:39;;;;;;;16.13;10.30;;;3.60;99.90;;;;;;7391496;19;20189;-80
2022/12/11 01:26:13;;;;;;;15.37;9.37;;;3.70;99.90;;;;;;7391974;19;20565;-80
2022/12/11 01:28:41;;;;;;;14.53;9.03;;;3.70;99.90;;;;;;7392299;19;20524;-81
2022/12/11 01:31:09;;;;;;;12.10;8.33;;;3.70;99.90;;;;;;7390709;19;20608;-79
2022/12/11 01:33:36;;;;;;;13.83;8.07;;;3.90;99.90;;;;;;7391789;19;20150;-80
2022/12/11 01:36:24;;;;;;;14.33;8.47;;;3.70;99.90;;;;;;7392386;19;20168;-81
2022/12/11 01:38:50;;;;;;;13.63;7.73;;;3.70;99.90;;;;;;7391356;19;20270;-80
2022/12/11 01:41:17;;;;;;;12.23;9.03;;;3.60;99.90;;;;;;7392684;19;20233;-80
2022/12/11 01:44:06;;;;;;;14.73;8.37;;;3.50;99.90;;;;;;7390930;19;20138;-81
2022/12/11 01:46:34;;;;;;;15.33;8.80;;;3.60;99.90;;;;;;7401552;19;20143;-80
2022/12/11 01:49:04;;;;;;;13.67;9.00;;;3.60;99.90;;;;;;7397399;19;20184;-80
2022/12/11 01:51:35;;;;;;;14.20;8.90;;;3.60;99.90;;;;;;7400483;19;20147;-80
2022/12/11 01:54:05;;;;;;;15.30;9.10;;;3.70;99.90;;;;;;7398276;19;20142;-80
2022/12/11 01:56:34;;;;;;;16.73;8.70;;;3.70;99.90;;;;;;7394989;19;20179;-80
2022/12/11 01:59:06;;;;;;;16.63;10.03;;;3.70;99.90;;;;;;7399204;19;20138;-80
2022/12/11 02:01:34;;;;;;;16.97;10.33;;;3.60;99.90;;;;;;7400913;19;20138;-81
2022/12/11 02:04:01;;;;;;;17.80;10.80;;;3.60;99.90;;;;;;7400218;19;20153;-82
2022/12/11 02:06:42;;;;;;;17.47;9.87;;;3.60;99.90;;;;;;7398921;19;20168;-81
2022/12/11 02:09:12;;;;;;;16.80;10.07;;;3.60;99.90;;;;;;7397749;19;20151;-81
2022/12/11 02:11:46;;;;;;;15.03;9.90;;;3.70;99.90;;;;;;7399848;19;20151;-82
2022/12/11 02:14:27;;;;;;;18.73;10.40;;;3.80;99.90;;;;;;7398093;19;20221;-81
2022/12/11 02:17:01;;;;;;;20.37;11.07;;;3.90;99.90;;;;;;7397757;19;20134;-81
2022/12/11 02:19:50;;;;;;;18.90;11.10;;;3.90;99.90;;;;;;7400415;19;20168;-82
2022/12/11 02:22:27;;;;;;;15.37;9.90;;;3.80;99.90;;;;;;7398400;19;20174;-80
2022/12/11 02:24:59;;;;;;;15.83;8.87;;;3.70;99.90;;;;;;7397939;19;20146;-81
2022/12/11 02:27:34;;;;;;;14.63;9.23;;;3.80;99.90;;;;;;7399481;19;20660;-81
2022/12/11 02:30:07;;;;;;;15.63;8.73;;;3.80;99.90;;;;;;7398484;19;20155;-82
2022/12/11 02:32:44;;;;;;;15.77;8.03;;;3.70;99.90;;;;;;7397679;19;20878;-82
2022/12/11 02:35:13;;;;;;;10.33;6.87;;;3.70;99.90;;;;;;7399152;19;20134;-81
2022/12/11 02:37:43;;;;;;;13.43;7.33;;;3.60;99.90;;;;;;7397439;19;20202;-81
2022/12/11 02:40:13;;;;;;;16.47;7.97;;;3.60;99.90;;;;;;7395435;19;20214;-81
2022/12/11 02:42:41;;;;;;;11.73;7.60;;;3.60;99.90;;;;;;7397981;19;20151;-81
2022/12/11 02:45:09;;;;;;;11.07;7.00;;;3.70;99.90;;;;;;7397197;19;20139;-80
2022/12/11 02:47:37;;;;;;;11.93;7.17;;;3.70;99.90;;;;;;7399900;19;20150;-80
2022/12/11 02:50:10;;;;;;;10.57;6.90;;;3.70;99.90;;;;;;7397751;19;20139;-81
2022/12/11 02:52:37;;;;;;;12.40;6.70;;;3.80;99.90;;;;;;7395889;19;20134;-81
2022/12/11 02:55:06;;;;;;;11.37;7.13;;;3.80;99.90;;;;;;7397097;19;20222;-81
2022/12/11 02:57:51;;;;;;;12.00;8.07;;;3.50;99.90;;;;;;7395184;19;20618;-82
2022/12/11 03:00:18;;;;;;;12.07;7.07;;;3.60;99.90;;;;;;7396431;19;20182;-80
2022/12/11 03:02:44;;;;;;;11.63;7.33;;;3.80;99.90;;;;;;7396425;19;20198;-80
2022/12/11 03:05:12;;;;;;;11.23;7.20;;;3.80;99.90;;;;;;7397252;19;20194;-81
2022/12/11 03:07:41;;;;;;;10.97;7.57;;;3.80;99.90;;;;;;7396532;19;20139;-80
2022/12/11 03:10:09;;;;;;;12.30;7.17;;;3.80;99.90;;;;;;7396940;19;20479;-81
2022/12/11 03:12:40;;;;;;;12.87;7.63;;;3.60;99.90;;;;;;7393921;19;20138;-80
2022/12/11 03:15:12;;;;;;;10.03;6.80;;;3.70;99.90;;;;;;7397132;19;20143;-81
2022/12/11 03:18:01;;;;;;;11.33;7.20;;;3.60;99.90;;;;;;7397538;19;20146;-81
2022/12/11 03:20:28;;;;;;;11.50;7.63;;;3.60;99.90;;;;;;7392621;19;20165;-80
2022/12/11 03:23:07;;;;;;;14.57;7.07;;;3.70;99.90;;;;;;7394872;19;20230;-81
2022/12/11 03:25:54;;;;;;;12.27;7.67;;;3.70;99.90;;;;;;7393790;19;20134;-80
2022/12/11 03:28:28;;;;;;;13.67;7.40;;;3.70;99.90;;;;;;7397004;19;20134;-79
2022/12/11 03:30:55;;;;;;;12.70;7.97;;;3.60;99.90;;;;;;7397945;19;20213;-80
2022/12/11 03:33:46;;;;;;;11.37;6.73;;;3.70;99.90;;;;;;7394999;19;20598;-81
2022/12/11 03:36:19;;;;;;;11.93;8.27;;;3.70;99.90;;;;;;7392791;19;20154;-80
2022/12/11 03:38:56;;;;;;;13.70;7.97;;;3.70;99.90;;;;;;7395201;19;20146;-82
2022/12/11 03:41:24;;;;;;;13.03;7.63;;;3.60;99.90;;;;;;7391821;19;20651;-82
2022/12/11 03:43:54;;;;;;;11.90;7.70;;;3.70;99.90;;;;;;7392174;19;20584;-80
2022/12/11 03:46:24;;;;;;;12.17;7.53;;;3.60;99.90;;;;;;7394720;19;20158;-80
2022/12/11 03:48:52;;;;;;;14.87;8.37;;;3.60;99.90;;;;;;7397765;19;20143;-81
2022/12/11 03:51:19;;;;;;;11.97;8.17;;;3.70;99.90;;;;;;7395245;19;20135;-81
2022/12/11 03:53:46;;;;;;;10.77;7.43;;;3.70;99.90;;;;;;7395197;19;20139;-81
2022/12/11 03:56:13;;;;;;;15.53;7.93;;;3.80;99.90;;;;;;7394147;19;20622;-81
2022/12/11 03:58:39;;;;;;;13.73;8.50;;;3.70;99.90;;;;;;7397662;19;20674;-82
2022/12/11 04:01:09;;;;;;;11.40;7.90;;;3.70;99.90;;;;;;7395981;19;20163;-81
2022/12/11 04:03:35;;;;;;;15.10;8.50;;;3.80;99.90;;;;;;7393918;19;20143;-81
2022/12/11 04:06:01;;;;;;;12.87;8.13;;;3.80;99.90;;;;;;7394670;19;20143;-81
2022/12/11 04:08:27;;;;;;;13.03;7.93;;;3.70;99.90;;;;;;7392304;19;20265;-81
2022/12/11 04:13:40;;;;;;;15.20;8.33;;;3.60;99.90;;;;;;7395474;19;20595;-80
2022/12/11 04:16:07;;;;;;;13.37;8.17;;;3.60;99.90;;;;;;7393989;19;20159;-80
2022/12/11 04:24:15;;;;;;;11.53;6.93;;;3.70;99.90;;;;;;7394186;19;20135;-81
2022/12/11 04:26:45;;;;;;;9.17;5.73;;;3.70;99.90;;;;;;7394417;19;20142;-82
2022/12/11 04:29:12;;;;;;;11.30;6.37;;;3.60;99.90;;;;;;7394539;19;20633;-81
2022/12/11 04:31:38;;;;;;;11.03;6.40;;;3.70;99.90;;;;;;7393295;19;20135;-81
2022/12/11 04:34:04;;;;;;;11.47;6.63;;;3.70;99.90;;;;;;7393107;19;20849;-82
2022/12/11 04:36:30;;;;;;;10.13;6.23;;;3.70;99.90;;;;;;7393090;19;20464;-81
2022/12/11 04:38:55;;;;;;;9.47;5.80;;;3.60;99.90;;;;;;7392662;19;20135;-82
2022/12/11 04:41:21;;;;;;;11.13;6.83;;;3.60;99.90;;;;;;7392755;19;20139;-82
2022/12/11 04:43:47;;;;;;;8.93;6.37;;;3.60;99.90;;;;;;7393345;19;20144;-81
2022/12/11 04:46:16;;;;;;;11.47;6.80;;;3.50;99.90;;;;;;7392717;19;20139;-80
2022/12/11 04:48:43;;;;;;;11.60;7.53;;;3.50;99.90;;;;;;7393586;19;20127;-81
2022/12/11 04:51:09;;;;;;;10.73;6.40;;;3.50;99.90;;;;;;7394061;19;20143;-80
2022/12/11 04:53:36;;;;;;;11.73;7.17;;;3.60;99.90;;;;;;7392892;19;20135;-81
2022/12/11 04:56:05;;;;;;;11.27;6.73;;;3.40;99.90;;;;;;7392204;19;20157;-82
2022/12/11 04:58:31;;;;;;;10.87;6.40;;;3.40;99.90;;;;;;7395862;19;20149;-81
2022/12/11 05:00:56;;;;;;;11.20;6.73;;;3.60;99.90;;;;;;7393427;19;20138;-83
2022/12/11 05:03:22;;;;;;;10.37;6.20;;;3.30;99.90;;;;;;7391491;19;20154;-82
2022/12/11 05:05:49;;;;;;;10.63;7.03;;;3.50;99.90;;;;;;7392733;19;20160;-81
2022/12/11 05:08:16;;;;;;;10.43;6.37;;;3.70;99.90;;;;;;7393308;19;20495;-82
2022/12/11 05:10:42;;;;;;;9.67;6.20;;;3.60;99.90;;;;;;7394418;19;20137;-81
2022/12/11 05:13:08;;;;;;;9.77;6.57;;;3.70;99.90;;;;;;7391866;19;20218;-81
2022/12/11 05:15:33;;;;;;;10.23;5.77;;;3.70;99.90;;;;;;7392159;19;20131;-81
2022/12/11 05:17:59;;;;;;;9.93;6.53;;;3.70;99.90;;;;;;7391514;19;20849;-80
2022/12/11 05:20:26;;;;;;;12.27;6.67;;;3.70;99.90;;;;;;7392420;19;20158;-81
2022/12/11 05:22:52;;;;;;;10.37;6.77;;;3.50;99.90;;;;;;7392422;19;20607;-80
2022/12/11 05:25:17;;;;;;;10.40;6.33;;;3.30;99.90;;;;;;7392140;19;20142;-81
2022/12/11 05:27:43;;;;;;;16.27;6.80;;;3.40;99.90;;;;;;7391782;19;20602;-81
2022/12/11 05:30:09;;;;;;;10.87;6.60;;;3.20;99.90;;;;;;7393678;19;20630;-81
2022/12/11 05:32:35;;;;;;;10.63;6.83;;;3.40;99.90;;;;;;7392413;19;20150;-80
2022/12/11 05:35:02;;;;;;;10.20;6.67;;;3.40;99.90;;;;;;7392353;19;20677;-82
2022/12/11 05:37:28;;;;;;;11.53;6.23;;;3.60;99.90;;;;;;7391829;19;20139;-80
2022/12/11 05:39:54;;;;;;;11.17;6.33;;;3.50;99.90;;;;;;7390243;19;20753;-81
2022/12/11 05:42:19;;;;;;;11.37;6.67;;;3.50;99.90;;;;;;7392322;19;20615;-81
2022/12/11 05:44:45;;;;;;;14.60;7.23;;;3.50;99.90;;;;;;7390962;19;20150;-82
2022/12/11 05:47:11;;;;;;;8.57;6.53;;;3.40;99.90;;;;;;7393594;19;20134;-82
2022/12/11 05:49:37;;;;;;;12.40;6.60;;;3.50;99.90;;;;;;7392649;19;20139;-82
2022/12/11 05:52:05;;;;;;;11.33;6.87;;;3.50;99.90;;;;;;7390196;19;20175;-81
2022/12/11 05:54:31;;;;;;;11.67;7.07;;;3.40;99.90;;;;;;7390297;19;20139;-81
2022/12/11 05:56:57;;;;;;;11.37;7.10;;;3.40;99.90;;;;;;7387769;19;20142;-82
2022/12/11 05:59:23;;;;;;;10.13;6.13;;;3.30;99.90;;;;;;7393335;19;20130;-80
2022/12/11 06:01:48;;;;;;;9.57;6.53;;;3.30;99.90;;;;;;7391867;19;20172;-83
2022/12/11 06:04:14;;;;;;;10.53;6.63;;;3.20;99.90;;;;;;7391298;19;20131;-80
2022/12/11 06:06:42;;;;;;;10.90;6.87;;;2.80;99.90;;;;;;7391685;19;20164;-80
2022/12/11 06:09:13;;;;;;;14.53;6.90;;;2.80;99.90;;;;;;7393728;19;20142;-80
2022/12/11 06:11:39;;;;;;;10.97;7.07;;;2.30;99.90;;;;;;7392070;19;20163;-81
2022/12/11 06:14:05;;;;;;;12.07;6.83;;;2.60;99.90;;;;;;7391380;19;20497;-80
2022/12/11 06:16:31;;;;;;;13.83;7.33;;;2.90;99.90;;;;;;7389208;19;20143;-80
2022/12/11 06:18:57;;;;;;;12.47;7.03;;;3.00;99.90;;;;;;7390238;19;20220;-80
2022/12/11 06:21:29;;;;;;;13.43;7.97;;;2.90;99.90;;;;;;7389381;19;20159;-79
2022/12/11 06:23:57;;;;;;;16.87;8.47;;;3.10;99.90;;;;;;7392462;19;20195;-81
2022/12/11 06:26:24;;;;;;;15.17;8.93;;;3.10;99.90;;;;;;7389750;19;20703;-80
2022/12/11 06:28:49;;;;;;;15.00;9.23;;;3.10;99.90;;;;;;7389040;19;20154;-81
2022/12/11 06:31:16;;;;;;;15.17;9.13;;;3.10;99.90;;;;;;7393762;19;20130;-80
2022/12/11 06:33:42;;;;;;;16.30;9.43;;;3.10;99.90;;;;;;7398768;19;20495;-80
2022/12/11 06:36:14;;;;;;;14.70;9.03;;;3.10;99.90;;;;;;7396329;19;20342;-80
2022/12/11 06:38:40;;;;;;;15.37;9.17;;;3.00;99.90;;;;;;7396864;19;20150;-80
2022/12/11 06:41:07;;;;;;;15.73;9.53;;;2.90;99.90;;;;;;7395212;19;20174;-80
2022/12/11 06:43:34;;;;;;;14.93;9.30;;;3.00;99.90;;;;;;7395812;19;20142;-80
2022/12/11 06:46:08;;;;;;;14.97;9.33;;;3.10;99.90;;;;;;7398879;19;20135;-81
2022/12/11 06:48:35;;;;;;;22.17;9.80;;;3.10;99.90;;;;;;7395752;19;20154;-80
2022/12/11 06:51:12;;;;;;;16.87;9.10;;;3.00;99.90;;;;;;7392304;19;20150;-80
2022/12/11 06:53:38;;;;;;;15.03;9.20;;;2.80;99.90;;;;;;7396410;19;20506;-80
2022/12/11 06:56:06;;;;;;;14.27;9.13;;;2.50;99.90;;;;;;7396747;19;20668;-80
2022/12/11 06:58:36;;;;;;;14.93;8.97;;;2.60;99.90;;;;;;7396751;19;20167;-79
2022/12/11 07:01:03;;;;;;;16.77;8.93;;;2.90;99.90;;;;;;7398723;19;20162;-80
2022/12/11 07:03:29;;;;;;;18.60;9.60;;;3.00;99.90;;;;;;7395278;19;20146;-80
2022/12/11 07:06:00;;;;;;;14.83;9.47;;;3.10;99.90;;;;;;7397032;19;20155;-80
2022/12/11 07:08:27;;;;;;;13.50;8.10;;;3.10;99.90;;;;;;7395872;19;20134;-81
2022/12/11 07:10:53;;;;;;;12.57;7.93;;;3.10;99.90;;;;;;7399528;19;20139;-80
2022/12/11 07:13:19;;;;;;;14.03;8.83;;;3.30;99.90;;;;;;7394553;19;20158;-80
2022/12/11 07:15:45;;;;;;;13.10;8.83;;;3.10;99.90;;;;;;7395170;19;20131;-79
2022/12/11 07:18:10;;;;;;;12.53;7.83;;;3.20;99.90;;;;;;7396735;19;20135;-80
2022/12/11 07:20:36;;;;;;;14.63;8.87;;;3.20;99.90;;;;;;7394358;19;20523;-79
2022/12/11 07:23:02;;;;;;;12.93;8.47;;;3.20;99.90;;;;;;7393120;19;20147;-80
2022/12/11 07:25:28;;;;;;;14.50;8.57;;;3.20;99.90;;;;;;7395785;19;20151;-81
2022/12/11 07:27:53;;;;;;;13.30;8.10;;;3.20;99.90;;;;;;7396568;19;20619;-81
2022/12/11 07:30:19;;;;;;;11.00;7.67;;;3.10;99.90;;;;;;7394076;19;20602;-81
2022/12/11 07:32:45;;;;;;;11.43;7.63;;;3.20;99.90;;;;;;7394192;19;20134;-80
2022/12/11 07:35:11;;;;;;;14.33;8.30;;;3.10;99.90;;;;;;7393547;19;20525;-81
2022/12/11 07:37:40;;;;;;;12.60;7.40;;;3.20;99.90;;;;;;7395763;19;20150;-80
2022/12/11 07:40:06;;;;;;;13.07;8.13;;;3.20;99.90;;;;;;7395273;19;20633;-80
2022/12/11 07:42:33;;;;;;;13.63;8.27;;;3.20;99.90;;;;;;7392161;19;20142;-80
2022/12/11 07:44:58;;;;;;;13.63;8.23;;;3.20;99.90;;;;;;7395194;19;20587;-79
2022/12/11 07:47:24;;;;;;;15.47;9.00;;;3.20;99.90;;;;;;7397666;19;20143;-79
2022/12/11 07:49:50;;;;;;;11.80;7.83;;;3.20;99.90;;;;;;7393770;19;20161;-79
2022/12/11 07:52:15;;;;;;;11.60;6.70;;;3.20;99.90;;;;;;7394034;19;20154;-78
2022/12/11 07:54:41;;;;;;;12.67;7.10;;;3.20;99.90;;;;;;7394573;19;20177;-79
2022/12/11 07:57:07;;;;;;;12.90;8.23;;;3.20;99.90;;;;;;7392746;19;20146;-79
2022/12/11 07:59:33;;;;;;;13.93;8.20;;;3.20;99.90;;;;;;7393866;19;20138;-76
2022/12/11 08:01:58;;;;;;;13.73;8.23;;;3.30;99.90;;;;;;7391558;19;20131;-77
2022/12/11 08:04:24;;;;;;;12.67;7.77;;;3.30;99.90;;;;;;7394721;19;20138;-78
2022/12/11 08:06:50;;;;;;;13.17;7.73;;;3.30;99.90;;;;;;7393216;19;20710;-78
2022/12/11 08:09:15;;;;;;;14.63;8.63;;;3.30;99.90;;;;;;7393183;19;20591;-78
2022/12/11 08:11:41;;;;;;;15.87;8.17;;;3.30;99.90;;;;;;7392321;19;20139;-79
2022/12/11 08:14:08;;;;;;;13.27;7.63;;;3.40;99.90;;;;;;7391435;19;20134;-76
2022/12/11 08:16:34;;;;;;;12.20;7.73;;;3.40;99.90;;;;;;7390150;19;20602;-78
2022/12/11 08:19:01;;;;;;;12.87;8.00;;;3.40;99.90;;;;;;7394047;19;20138;-77
2022/12/11 08:21:30;;;;;;;13.77;7.97;;;3.40;99.90;;;;;;7393558;19;20127;-78
2022/12/11 08:23:56;;;;;;;13.57;7.73;;;3.30;99.90;;;;;;7391022;19;20602;-78
2022/12/11 08:26:25;;;;;;;15.67;8.27;;;3.40;99.90;;;;;;7391888;19;20143;-78
2022/12/11 08:28:51;;;;;;;10.57;7.17;;;3.50;99.90;;;;;;7393944;19;20142;-77
2022/12/11 08:31:19;;;;;;;14.70;7.93;;;3.50;99.90;;;;;;7393717;19;20161;-79
2022/12/11 08:33:46;;;;;;;12.87;7.23;;;3.50;99.90;;;;;;7392498;19;20130;-78
2022/12/11 08:36:14;;;;;;;11.17;7.13;;;3.60;99.90;;;;;;7390751;19;20142;-78
2022/12/11 08:38:41;;;;;;;12.13;7.70;;;3.60;99.90;;;;;;7390532;19;20567;-78
2022/12/11 08:41:29;;;;;;;12.23;7.70;;;3.60;99.90;;;;;;7390823;19;20137;-77
2022/12/11 08:43:56;;;;;;;14.20;7.47;;;3.50;99.90;;;;;;7390443;19;20154;-76
2022/12/11 08:46:25;;;;;;;13.53;7.87;;;3.30;99.90;;;;;;7393294;19;20552;-77
2022/12/11 08:48:52;;;;;;;15.63;7.77;;;3.30;99.90;;;;;;7392363;19;20201;-75
2022/12/11 08:51:21;;;;;;;15.03;8.47;;;3.30;99.90;;;;;;7393518;19;20123;-77
2022/12/11 08:53:47;;;;;;;14.17;8.07;;;3.40;99.90;;;;;;7390774;19;20138;-77
2022/12/11 08:56:15;;;;;;;14.80;8.27;;;3.40;99.90;;;;;;7390307;19;20173;-77
2022/12/11 08:58:42;;;;;;;13.63;8.03;;;3.30;99.90;;;;;;7391556;19;20131;-77
2022/12/11 09:01:11;;;;;;;11.73;7.63;;;3.30;99.90;;;;;;7392772;19;20501;-77
2022/12/11 09:03:37;;;;;;;14.03;8.37;;;3.30;99.90;;;;;;7392480;19;20127;-77
2022/12/11 09:06:06;;;;;;;14.67;8.50;;;3.40;99.90;;;;;;7391936;19;20138;-76
2022/12/11 09:08:32;;;;;;;13.30;8.37;;;3.30;99.90;;;;;;7390387;19;20146;-77
2022/12/11 09:11:05;;;;;;;13.57;8.23;;;3.30;99.90;;;;;;7390721;19;20464;-76
2022/12/11 09:13:31;;;;;;;14.63;8.37;;;3.20;99.90;;;;;;7391263;19;20599;-77
2022/12/11 09:15:57;;;;;;;17.47;9.20;;;3.20;99.90;;;;;;7393014;19;20576;-77
2022/12/11 09:18:23;;;;;;;18.47;8.53;;;3.20;99.90;;;;;;7391457;19;20134;-77
2022/12/11 09:20:57;;;;;;;14.37;8.50;;;3.30;99.90;;;;;;7391824;19;20130;-79
2022/12/11 09:23:23;;;;;;;14.07;8.20;;;3.40;99.90;;;;;;7390582;19;20227;-78
2022/12/11 09:25:49;;;;;;;13.30;8.77;;;3.60;99.90;;;;;;7391883;19;20134;-79
2022/12/11 09:28:15;;;;;;;14.00;8.00;;;3.60;99.90;;;;;;7391920;19;20146;-78
2022/12/11 09:30:41;;;;;;;16.90;8.37;;;3.40;99.90;;;;;;7392325;19;20135;-78
2022/12/11 09:33:06;;;;;;;13.50;7.63;;;3.40;99.90;;;;;;7390675;19;20145;-78
2022/12/11 09:35:32;;;;;;;13.37;7.93;;;3.50;99.90;;;;;;7390483;19;20568;-80
2022/12/11 09:37:58;;;;;;;15.70;8.87;;;3.50;99.90;;;;;;7390522;19;20210;-78
2022/12/11 09:40:24;;;;;;;14.57;8.07;;;3.50;99.90;;;;;;7391315;19;20130;-82
2022/12/11 09:43:00;;;;;;;12.90;7.60;;;3.60;99.90;;;;;;7393554;19;20611;-83
2022/12/11 09:45:27;;;;;;;13.97;8.17;;;3.60;99.90;;;;;;7395775;19;20153;-83
2022/12/11 09:47:55;;;;;;;14.90;7.80;;;3.70;99.90;;;;;;7395556;19;20180;-83
2022/12/11 09:50:33;;;;;;;12.23;8.60;;;3.70;99.90;;;;;;7389461;19;20134;-82
2022/12/11 09:53:17;;;;;;;17.17;7.90;;;3.80;99.90;;;;;;7392598;19;20130;-82
2022/12/11 09:55:50;;;;;;;13.10;7.83;;;3.90;99.90;;;;;;7389889;19;20138;-84
2022/12/11 09:58:34;;;;;;;14.40;7.83;;;3.90;99.90;;;;;;7393480;19;20158;-83
2022/12/11 10:01:19;;;;;;;17.00;9.57;;;4.00;99.90;;;;;;7394877;19;20154;-83
2022/12/11 10:04:15;;;;;;;16.67;9.97;;;3.80;99.90;;;;;;7391997;19;20160;-86
2022/12/11 10:06:54;;;;;;;15.40;9.30;;;3.50;99.90;;;;;;7397226;19;20142;-86
2022/12/11 10:09:49;;;;;;;15.10;8.30;;;3.80;99.90;;;;;;7399006;19;20142;-83
2022/12/11 10:12:47;;;;;;;15.47;9.10;;;4.00;99.90;;;;;;7399310;19;20146;-84
2022/12/11 10:15:22;;;;;;;15.17;9.03;;;4.10;99.90;;;;;;7396488;19;20143;-83
2022/12/11 10:17:50;;;;;;;16.40;9.67;;;4.00;99.90;;;;;;7398714;19;20539;-83
2022/12/11 10:20:33;;;;;;;13.77;8.77;;;3.90;99.90;;;;;;7398816;19;20146;-83
2022/12/11 10:23:00;;;;;;;15.47;10.07;;;3.70;99.90;;;;;;7397887;19;20142;-84
2022/12/11 10:25:50;;;;;;;15.20;8.83;;;3.70;99.90;;;;;;7397675;19;20142;-83
2022/12/11 10:28:18;;;;;;;14.80;9.53;;;3.60;99.90;;;;;;7398434;19;20142;-84
2022/12/11 10:31:17;;;;;;;18.43;9.93;;;3.20;99.90;;;;;;7398741;19;20146;-84
2022/12/11 10:33:59;;;;;;;15.93;10.23;;;3.10;99.90;;;;;;7398386;19;20130;-84
2022/12/11 10:36:35;;;;;;;15.20;9.87;;;3.60;99.90;;;;;;7399208;19;20139;-84
2022/12/11 10:39:02;;;;;;;15.87;9.50;;;3.70;99.90;;;;;;7399476;19;20138;-84
2022/12/11 10:41:40;;;;;;;15.40;8.60;;;3.80;99.90;;;;;;7396337;19;20154;-84
2022/12/11 10:44:24;;;;;;;16.13;9.03;;;3.10;99.90;;;;;;7397530;19;20146;-84
2022/12/11 10:47:17;;;;;;;18.53;10.20;;;3.40;99.90;;;;;;7397678;19;20160;-83
2022/12/11 10:49:57;;;;;;;15.37;10.30;;;3.70;99.90;;;;;;7397937;19;20150;-83
2022/12/11 10:52:33;;;;;;;16.40;10.13;;;3.80;99.90;;;;;;7397909;19;20496;-83
2022/12/11 10:55:28;;;;;;;14.93;9.90;;;3.90;99.90;;;;;;7396862;19;20282;-84
2022/12/11 10:57:58;;;;;;;17.73;9.73;;;4.00;99.90;;;;;;7395615;19;20602;-82
2022/12/11 11:00:34;;;;;;;16.13;9.23;;;3.90;99.90;;;;;;7396382;19;20600;-84
2022/12/11 11:03:01;;;;;;;17.07;9.20;;;3.50;99.90;;;;;;7394885;19;20150;-83
2022/12/11 11:05:36;;;;;;;14.20;9.33;;;3.80;99.90;;;;;;7396567;19;20178;-83
2022/12/11 11:08:18;;;;;;;14.57;9.13;;;4.10;99.90;;;;;;7398170;19;20126;-84
2022/12/11 11:10:52;;;;;;;16.67;9.90;;;3.10;99.90;;;;;;7399493;19;20622;-84
2022/12/11 11:13:21;;;;;;;15.67;9.43;;;3.20;99.90;;;;;;7395544;19;20241;-84
2022/12/11 11:15:48;;;;;;;15.07;9.50;;;3.40;99.90;;;;;;7395411;19;20504;-84
2022/12/11 11:18:25;;;;;;;16.07;10.10;;;3.80;99.90;;;;;;7396618;19;20608;-84
2022/12/11 11:20:51;;;;;;;15.10;9.20;;;4.00;99.90;;;;;;7397851;19;20150;-83
2022/12/11 11:23:20;;;;;;;17.63;11.63;;;3.80;99.90;;;;;;7396786;19;20131;-84
2022/12/11 11:25:59;;;;;;;16.30;9.97;;;4.00;99.90;;;;;;7395724;19;20756;-84
2022/12/11 11:28:46;;;;;;;15.77;9.77;;;4.10;99.90;;;;;;7396958;19;20430;-83
2022/12/11 11:31:14;;;;;;;20.07;10.53;;;4.20;99.90;;;;;;7397085;19;20138;-83
2022/12/11 11:33:58;;;;;;;15.60;9.63;;;4.20;99.90;;;;;;7396211;19;20162;-84
2022/12/11 11:36:31;;;;;;;14.10;9.53;;;3.50;99.90;;;;;;7396690;19;20618;-84
2022/12/11 11:39:20;;;;;;;17.23;10.43;;;3.80;99.90;;;;;;7398735;19;20149;-83
2022/12/11 11:41:56;;;;;;;14.23;9.30;;;3.40;99.90;;;;;;7396336;19;20133;-84
2022/12/11 11:44:36;;;;;;;14.70;8.87;;;3.30;99.90;;;;;;7394565;19;20142;-84
2022/12/11 11:47:21;;;;;;;14.93;9.77;;;3.80;99.90;;;;;;7398497;19;20136;-84
2022/12/11 11:50:06;;;;;;;16.23;9.63;;;4.00;99.90;;;;;;7397416;19;20143;-90
2022/12/11 11:52:47;;;;;;;16.30;9.00;;;3.80;99.90;;;;;;7396552;19;20172;-87
2022/12/11 11:55:44;;;;;;;14.93;9.13;;;4.10;99.90;;;;;;7395933;19;21204;-86
2022/12/11 11:58:21;;;;;;;13.73;8.97;;;4.10;99.90;;;;;;7393619;19;20143;-85
2022/12/11 12:00:49;;;;;;;18.40;9.10;;;3.50;99.90;;;;;;7397199;19;20466;-85
2022/12/11 12:03:17;;;;;;;17.50;9.37;;;3.80;99.90;;;;;;7395324;19;20142;-83
2022/12/11 12:05:58;;;;;;;15.80;9.27;;;3.90;99.90;;;;;;7397145;19;20605;-89
2022/12/11 12:09:03;;;;;;;15.93;9.60;;;4.10;99.90;;;;;;7395346;19;20202;-85
2022/12/11 12:12:04;;;;;;;15.57;9.13;;;4.20;99.90;;;;;;7393347;19;20146;-83
2022/12/11 12:14:37;;;;;;;17.93;9.30;;;4.30;99.90;;;;;;7393871;19;20583;-83
2022/12/11 12:17:30;;;;;;;16.23;8.87;;;4.30;99.90;;;;;;7394563;19;20512;-84
2022/12/11 12:20:18;;;;;;;14.83;8.77;;;4.40;99.90;;;;;;7395818;19;20489;-85
2022/12/11 12:23:13;;;;;;;16.10;9.10;;;4.40;99.90;;;;;;7396674;19;20138;-85
2022/12/11 12:25:53;;;;;;;15.23;8.97;;;4.30;99.90;;;;;;7396392;19;20142;-85
2022/12/11 12:28:52;;;;;;;16.00;9.37;;;4.20;99.90;;;;;;7393912;19;20133;-84
2022/12/11 12:31:21;;;;;;;14.60;9.70;;;4.30;99.90;;;;;;7391210;19;20225;-84
2022/12/11 12:33:53;;;;;;;17.37;9.33;;;4.30;99.90;;;;;;7393445;19;20227;-84
2022/12/11 12:36:26;;;;;;;15.40;9.80;;;3.80;99.90;;;;;;7392190;19;20149;-83
2022/12/11 12:38:53;;;;;;;16.73;10.17;;;4.00;99.90;;;;;;7394046;19;20133;-84
2022/12/11 12:41:45;;;;;;;18.07;11.07;;;4.00;99.90;;;;;;7393557;19;20627;-85
2022/12/11 12:44:17;;;;;;;16.50;10.47;;;4.10;99.90;;;;;;7390796;19;20158;-83
2022/12/11 12:47:07;;;;;;;17.63;10.27;;;4.10;99.90;;;;;;7393145;19;20194;-85
2022/12/11 12:49:44;;;;;;;17.20;9.70;;;4.10;99.90;;;;;;7392946;19;20151;-84
2022/12/11 12:52:31;;;;;;;15.97;10.37;;;4.20;99.90;;;;;;7395567;19;20184;-85
2022/12/11 12:55:14;;;;;;;16.63;10.33;;;4.20;99.90;;;;;;7393415;19;20509;-85
2022/12/11 12:57:45;;;;;;;27.10;14.90;;;4.10;99.90;;;;;;7391777;19;20146;-84
2022/12/11 13:00:11;;;;;;;17.47;11.30;;;4.20;99.90;;;;;;7394391;19;20491;-85
2022/12/11 13:02:49;;;;;;;17.10;10.13;;;4.10;99.90;;;;;;7394168;19;20150;-84
2022/12/11 13:05:22;;;;;;;20.80;10.40;;;3.30;99.90;;;;;;7393466;19;20134;-84
2022/12/11 13:07:52;;;;;;;14.63;9.73;;;3.20;99.90;;;;;;7391349;19;20599;-84
2022/12/11 13:10:37;;;;;;;14.73;9.30;;;3.60;99.90;;;;;;7392610;19;20203;-85
2022/12/11 13:13:24;;;;;;;17.53;10.43;;;3.90;99.90;;;;;;7393408;19;20127;-85